sensor_id;sensor_type;location;lat;lon;timestamp;P1;durP1;ratioP1;P2;durP2;ratioP2
5153;SDS011;2595;53.584;10.084;2022-11-15T00:00:04;25.10;;;17.63;;
5153;SDS011;2595;53.584;10.084;2022-11-15T00:02:30;27.23;;;17.17;;
5153;SDS011;2595;53.584;10.084;2022-11-15T00:04:56;32.17;;;20.23;;
5153;SDS011;2595;53.584;10.084;2022-11-15T00:07:21;33.50;;;22.37;;
5153;SDS011;2595;53.584;10.084;2022-11-15T00:09:47;26.50;;;18.90;;
5153;SDS011;2595;53.584;10.084;2022-11-15T00:12:13;32.43;;;22.93;;
5153;SDS011;2595;53.584;10.084;2022-11-15T00:14:38;26.17;;;19.37;;
5153;SDS011;2595;53.584;10.084;2022-11-15T00:17:04;26.90;;;17.83;;
5153;SDS011;2595;53.584;10.084;2022-11-15T00:19:29;30.90;;;20.50;;
5153;SDS011;2595;53.584;10.084;2022-11-15T00:21:55;26.47;;;18.20;;
5153;SDS011;2595;53.584;10.084;2022-11-15T00:24:20;27.40;;;18.80;;
5153;SDS011;2595;53.584;10.084;2022-11-15T00:26:46;28.13;;;19.60;;
5153;SDS011;2595;53.584;10.084;2022-11-15T00:29:11;28.97;;;19.53;;
5153;SDS011;2595;53.584;10.084;2022-11-15T00:31:37;30.53;;;17.67;;
5153;SDS011;2595;53.584;10.084;2022-11-15T00:34:03;30.60;;;19.80;;
5153;SDS011;2595;53.584;10.084;2022-11-15T00:36:28;28.47;;;20.43;;
5153;SDS011;2595;53.584;10.084;2022-11-15T00:38:57;30.87;;;19.63;;
5153;SDS011;2595;53.584;10.084;2022-11-15T00:41:22;29.80;;;20.00;;
5153;SDS011;2595;53.584;10.084;2022-11-15T00:43:48;29.20;;;19.90;;
5153;SDS011;2595;53.584;10.084;2022-11-15T00:46:13;29.50;;;18.80;;
5153;SDS011;2595;53.584;10.084;2022-11-15T00:48:39;29.90;;;20.07;;
5153;SDS011;2595;53.584;10.084;2022-11-15T00:51:05;27.90;;;19.90;;
5153;SDS011;2595;53.584;10.084;2022-11-15T00:53:30;28.77;;;19.73;;
5153;SDS011;2595;53.584;10.084;2022-11-15T00:55:56;29.07;;;18.83;;
5153;SDS011;2595;53.584;10.084;2022-11-15T00:58:22;28.37;;;19.57;;
5153;SDS011;2595;53.584;10.084;2022-11-15T01:00:47;29.53;;;18.70;;
5153;SDS011;2595;53.584;10.084;2022-11-15T01:03:13;32.73;;;19.77;;
5153;SDS011;2595;53.584;10.084;2022-11-15T01:05:38;28.43;;;19.03;;
5153;SDS011;2595;53.584;10.084;2022-11-15T01:08:05;27.37;;;18.57;;
5153;SDS011;2595;53.584;10.084;2022-11-15T01:10:31;25.03;;;19.00;;
5153;SDS011;2595;53.584;10.084;2022-11-15T01:12:57;24.60;;;17.47;;
5153;SDS011;2595;53.584;10.084;2022-11-15T01:15:22;27.53;;;19.30;;
5153;SDS011;2595;53.584;10.084;2022-11-15T01:17:48;27.13;;;18.80;;
5153;SDS011;2595;53.584;10.084;2022-11-15T01:20:13;23.03;;;16.17;;
5153;SDS011;2595;53.584;10.084;2022-11-15T01:22:39;29.53;;;19.03;;
5153;SDS011;2595;53.584;10.084;2022-11-15T01:25:04;29.33;;;19.00;;
5153;SDS011;2595;53.584;10.084;2022-11-15T01:27:30;26.33;;;17.23;;
5153;SDS011;2595;53.584;10.084;2022-11-15T01:29:56;23.53;;;18.17;;
5153;SDS011;2595;53.584;10.084;2022-11-15T01:32:21;24.00;;;17.90;;
5153;SDS011;2595;53.584;10.084;2022-11-15T01:34:47;25.27;;;17.83;;
5153;SDS011;2595;53.584;10.084;2022-11-15T01:37:12;29.47;;;19.17;;
5153;SDS011;2595;53.584;10.084;2022-11-15T01:39:38;23.50;;;17.60;;
5153;SDS011;2595;53.584;10.084;2022-11-15T01:42:03;30.80;;;19.67;;
5153;SDS011;2595;53.584;10.084;2022-11-15T01:47:08;24.43;;;16.73;;
5153;SDS011;2595;53.584;10.084;2022-11-15T01:49:39;27.23;;;18.73;;
5153;SDS011;2595;53.584;10.084;2022-11-15T01:52:11;22.93;;;17.80;;
5153;SDS011;2595;53.584;10.084;2022-11-15T01:54:42;25.53;;;17.70;;
5153;SDS011;2595;53.584;10.084;2022-11-15T01:57:08;27.07;;;16.83;;
5153;SDS011;2595;53.584;10.084;2022-11-15T01:59:37;22.07;;;15.30;;
5153;SDS011;2595;53.584;10.084;2022-11-15T02:02:07;24.90;;;16.23;;
5153;SDS011;2595;53.584;10.084;2022-11-15T02:04:37;23.63;;;18.07;;
5153;SDS011;2595;53.584;10.084;2022-11-15T02:07:09;28.73;;;17.87;;
5153;SDS011;2595;53.584;10.084;2022-11-15T02:09:38;25.23;;;18.07;;
5153;SDS011;2595;53.584;10.084;2022-11-15T02:12:04;24.97;;;17.33;;
5153;SDS011;2595;53.584;10.084;2022-11-15T02:14:32;27.67;;;16.80;;
5153;SDS011;2595;53.584;10.084;2022-11-15T02:25:35;17.13;;;15.03;;
5153;SDS011;2595;53.584;10.084;2022-11-15T02:29:22;23.43;;;16.30;;
5153;SDS011;2595;53.584;10.084;2022-11-15T02:38:59;27.40;;;17.20;;
5153;SDS011;2595;53.584;10.084;2022-11-15T02:42:04;18.07;;;14.53;;
5153;SDS011;2595;53.584;10.084;2022-11-15T02:44:52;22.00;;;15.80;;
5153;SDS011;2595;53.584;10.084;2022-11-15T02:47:22;22.07;;;16.73;;
5153;SDS011;2595;53.584;10.084;2022-11-15T02:49:53;22.50;;;17.00;;
5153;SDS011;2595;53.584;10.084;2022-11-15T02:52:22;20.00;;;14.80;;
5153;SDS011;2595;53.584;10.084;2022-11-15T02:54:53;20.73;;;15.23;;
5153;SDS011;2595;53.584;10.084;2022-11-15T02:57:22;22.73;;;15.67;;
5153;SDS011;2595;53.584;10.084;2022-11-15T03:00:09;28.47;;;18.60;;
5153;SDS011;2595;53.584;10.084;2022-11-15T03:16:30;24.40;;;16.57;;
5153;SDS011;2595;53.584;10.084;2022-11-15T03:19:04;23.20;;;16.67;;
5153;SDS011;2595;53.584;10.084;2022-11-15T03:21:50;17.20;;;15.37;;
5153;SDS011;2595;53.584;10.084;2022-11-15T03:24:17;17.97;;;13.90;;
5153;SDS011;2595;53.584;10.084;2022-11-15T03:26:45;22.20;;;15.40;;
5153;SDS011;2595;53.584;10.084;2022-11-15T03:29:16;20.13;;;14.83;;
5153;SDS011;2595;53.584;10.084;2022-11-15T03:31:45;21.33;;;16.60;;
5153;SDS011;2595;53.584;10.084;2022-11-15T03:37:31;21.80;;;15.20;;
5153;SDS011;2595;53.584;10.084;2022-11-15T03:39:59;17.80;;;14.40;;
5153;SDS011;2595;53.584;10.084;2022-11-15T03:45:59;21.37;;;15.37;;
5153;SDS011;2595;53.584;10.084;2022-11-15T03:48:24;22.07;;;15.70;;
5153;SDS011;2595;53.584;10.084;2022-11-15T03:50:55;19.53;;;14.40;;
5153;SDS011;2595;53.584;10.084;2022-11-15T03:53:21;19.10;;;15.27;;
5153;SDS011;2595;53.584;10.084;2022-11-15T03:55:46;16.70;;;12.10;;
5153;SDS011;2595;53.584;10.084;2022-11-15T03:58:12;21.13;;;14.33;;
5153;SDS011;2595;53.584;10.084;2022-11-15T04:00:38;22.20;;;16.63;;
5153;SDS011;2595;53.584;10.084;2022-11-15T04:03:03;18.50;;;14.67;;
5153;SDS011;2595;53.584;10.084;2022-11-15T04:05:29;18.30;;;15.60;;
5153;SDS011;2595;53.584;10.084;2022-11-15T04:07:55;19.97;;;13.57;;
5153;SDS011;2595;53.584;10.084;2022-11-15T04:10:20;23.90;;;16.20;;
5153;SDS011;2595;53.584;10.084;2022-11-15T04:12:46;18.60;;;15.10;;
5153;SDS011;2595;53.584;10.084;2022-11-15T04:15:13;17.93;;;14.40;;
5153;SDS011;2595;53.584;10.084;2022-11-15T04:20:09;20.80;;;14.50;;
5153;SDS011;2595;53.584;10.084;2022-11-15T04:23:11;17.90;;;14.20;;
5153;SDS011;2595;53.584;10.084;2022-11-15T04:26:05;19.77;;;15.70;;
5153;SDS011;2595;53.584;10.084;2022-11-15T04:28:39;16.70;;;14.10;;
5153;SDS011;2595;53.584;10.084;2022-11-15T04:31:25;18.30;;;13.53;;
5153;SDS011;2595;53.584;10.084;2022-11-15T04:33:51;19.13;;;13.33;;
5153;SDS011;2595;53.584;10.084;2022-11-15T04:36:17;17.17;;;13.33;;
5153;SDS011;2595;53.584;10.084;2022-11-15T04:39:01;18.70;;;14.43;;
5153;SDS011;2595;53.584;10.084;2022-11-15T04:41:27;18.17;;;13.73;;
5153;SDS011;2595;53.584;10.084;2022-11-15T04:43:54;15.40;;;13.70;;
5153;SDS011;2595;53.584;10.084;2022-11-15T04:46:19;15.00;;;12.80;;
5153;SDS011;2595;53.584;10.084;2022-11-15T04:48:45;19.83;;;15.27;;
5153;SDS011;2595;53.584;10.084;2022-11-15T04:51:11;14.50;;;12.90;;
5153;SDS011;2595;53.584;10.084;2022-11-15T04:53:37;17.50;;;12.33;;
5153;SDS011;2595;53.584;10.084;2022-11-15T04:56:02;20.10;;;12.70;;
5153;SDS011;2595;53.584;10.084;2022-11-15T04:58:28;15.07;;;13.13;;
5153;SDS011;2595;53.584;10.084;2022-11-15T05:00:54;18.97;;;14.40;;
5153;SDS011;2595;53.584;10.084;2022-11-15T05:03:19;16.87;;;14.50;;
5153;SDS011;2595;53.584;10.084;2022-11-15T05:06:03;17.17;;;12.70;;
5153;SDS011;2595;53.584;10.084;2022-11-15T05:08:30;15.93;;;14.27;;
5153;SDS011;2595;53.584;10.084;2022-11-15T05:10:55;22.83;;;14.00;;
5153;SDS011;2595;53.584;10.084;2022-11-15T05:13:21;20.40;;;14.00;;
5153;SDS011;2595;53.584;10.084;2022-11-15T05:15:47;20.07;;;16.10;;
5153;SDS011;2595;53.584;10.084;2022-11-15T05:18:12;19.30;;;14.80;;
5153;SDS011;2595;53.584;10.084;2022-11-15T05:20:38;14.80;;;12.33;;
5153;SDS011;2595;53.584;10.084;2022-11-15T05:23:04;16.40;;;13.97;;
5153;SDS011;2595;53.584;10.084;2022-11-15T05:25:30;20.20;;;15.50;;
5153;SDS011;2595;53.584;10.084;2022-11-15T05:27:55;16.50;;;14.00;;
5153;SDS011;2595;53.584;10.084;2022-11-15T05:30:21;16.60;;;14.97;;
5153;SDS011;2595;53.584;10.084;2022-11-15T05:32:47;19.70;;;15.70;;
5153;SDS011;2595;53.584;10.084;2022-11-15T05:35:14;20.33;;;15.60;;
5153;SDS011;2595;53.584;10.084;2022-11-15T05:37:46;16.70;;;14.80;;
5153;SDS011;2595;53.584;10.084;2022-11-15T05:40:12;15.00;;;13.20;;
5153;SDS011;2595;53.584;10.084;2022-11-15T05:42:38;19.63;;;14.90;;
5153;SDS011;2595;53.584;10.084;2022-11-15T05:45:04;15.77;;;12.50;;
5153;SDS011;2595;53.584;10.084;2022-11-15T05:47:33;19.73;;;15.33;;
5153;SDS011;2595;53.584;10.084;2022-11-15T05:50:00;18.20;;;15.30;;
5153;SDS011;2595;53.584;10.084;2022-11-15T05:52:27;15.33;;;13.73;;
5153;SDS011;2595;53.584;10.084;2022-11-15T05:54:56;17.53;;;13.20;;
5153;SDS011;2595;53.584;10.084;2022-11-15T05:57:23;20.07;;;15.40;;
5153;SDS011;2595;53.584;10.084;2022-11-15T05:59:49;19.47;;;14.00;;
5153;SDS011;2595;53.584;10.084;2022-11-15T06:02:15;16.00;;;13.47;;
5153;SDS011;2595;53.584;10.084;2022-11-15T06:04:40;14.83;;;12.50;;
5153;SDS011;2595;53.584;10.084;2022-11-15T06:07:06;18.30;;;14.90;;
5153;SDS011;2595;53.584;10.084;2022-11-15T06:09:32;19.53;;;13.70;;
5153;SDS011;2595;53.584;10.084;2022-11-15T06:11:57;16.97;;;14.67;;
5153;SDS011;2595;53.584;10.084;2022-11-15T06:14:23;18.83;;;14.50;;
5153;SDS011;2595;53.584;10.084;2022-11-15T06:16:48;17.60;;;14.37;;
5153;SDS011;2595;53.584;10.084;2022-11-15T06:19:14;16.27;;;13.10;;
5153;SDS011;2595;53.584;10.084;2022-11-15T06:21:39;16.50;;;13.50;;
5153;SDS011;2595;53.584;10.084;2022-11-15T06:24:05;17.20;;;13.13;;
5153;SDS011;2595;53.584;10.084;2022-11-15T06:26:32;18.00;;;13.90;;
5153;SDS011;2595;53.584;10.084;2022-11-15T06:28:57;19.10;;;15.07;;
5153;SDS011;2595;53.584;10.084;2022-11-15T06:31:23;21.70;;;14.47;;
5153;SDS011;2595;53.584;10.084;2022-11-15T06:33:48;19.33;;;14.57;;
5153;SDS011;2595;53.584;10.084;2022-11-15T06:36:14;19.20;;;13.60;;
5153;SDS011;2595;53.584;10.084;2022-11-15T06:38:42;19.80;;;15.00;;
5153;SDS011;2595;53.584;10.084;2022-11-15T06:41:10;21.47;;;16.30;;
5153;SDS011;2595;53.584;10.084;2022-11-15T06:43:37;24.90;;;15.90;;
5153;SDS011;2595;53.584;10.084;2022-11-15T06:46:03;19.00;;;14.27;;
5153;SDS011;2595;53.584;10.084;2022-11-15T06:48:30;18.83;;;15.50;;
5153;SDS011;2595;53.584;10.084;2022-11-15T06:50:57;19.37;;;14.97;;
5153;SDS011;2595;53.584;10.084;2022-11-15T06:53:24;19.23;;;13.80;;
5153;SDS011;2595;53.584;10.084;2022-11-15T06:55:50;21.80;;;16.57;;
5153;SDS011;2595;53.584;10.084;2022-11-15T06:58:17;19.37;;;15.33;;
5153;SDS011;2595;53.584;10.084;2022-11-15T07:00:42;20.40;;;14.90;;
5153;SDS011;2595;53.584;10.084;2022-11-15T07:03:08;18.83;;;14.87;;
5153;SDS011;2595;53.584;10.084;2022-11-15T07:05:35;18.33;;;13.83;;
5153;SDS011;2595;53.584;10.084;2022-11-15T07:08:01;17.60;;;15.57;;
5153;SDS011;2595;53.584;10.084;2022-11-15T07:10:27;21.30;;;16.00;;
5153;SDS011;2595;53.584;10.084;2022-11-15T07:12:53;22.13;;;15.03;;
5153;SDS011;2595;53.584;10.084;2022-11-15T07:15:21;16.67;;;14.07;;
5153;SDS011;2595;53.584;10.084;2022-11-15T07:17:50;16.20;;;13.97;;
5153;SDS011;2595;53.584;10.084;2022-11-15T07:20:16;18.70;;;15.77;;
5153;SDS011;2595;53.584;10.084;2022-11-15T07:22:42;20.23;;;15.90;;
5153;SDS011;2595;53.584;10.084;2022-11-15T07:25:10;18.40;;;15.20;;
5153;SDS011;2595;53.584;10.084;2022-11-15T07:27:36;17.50;;;12.40;;
5153;SDS011;2595;53.584;10.084;2022-11-15T07:30:02;18.40;;;15.00;;
5153;SDS011;2595;53.584;10.084;2022-11-15T07:32:28;17.30;;;15.03;;
5153;SDS011;2595;53.584;10.084;2022-11-15T07:34:54;15.53;;;13.90;;
5153;SDS011;2595;53.584;10.084;2022-11-15T07:37:20;20.03;;;15.20;;
5153;SDS011;2595;53.584;10.084;2022-11-15T07:39:45;21.77;;;15.90;;
5153;SDS011;2595;53.584;10.084;2022-11-15T07:42:11;20.43;;;15.90;;
5153;SDS011;2595;53.584;10.084;2022-11-15T07:44:55;21.70;;;17.00;;
5153;SDS011;2595;53.584;10.084;2022-11-15T07:47:21;14.10;;;12.73;;
5153;SDS011;2595;53.584;10.084;2022-11-15T07:49:47;14.07;;;12.60;;
5153;SDS011;2595;53.584;10.084;2022-11-15T07:52:13;23.40;;;14.97;;
5153;SDS011;2595;53.584;10.084;2022-11-15T07:54:38;19.50;;;15.30;;
5153;SDS011;2595;53.584;10.084;2022-11-15T07:57:04;16.90;;;14.03;;
5153;SDS011;2595;53.584;10.084;2022-11-15T07:59:32;17.07;;;15.30;;
5153;SDS011;2595;53.584;10.084;2022-11-15T08:01:57;25.77;;;15.27;;
5153;SDS011;2595;53.584;10.084;2022-11-15T08:04:23;23.80;;;16.70;;
5153;SDS011;2595;53.584;10.084;2022-11-15T08:06:48;26.97;;;14.07;;
5153;SDS011;2595;53.584;10.084;2022-11-15T08:09:14;20.33;;;14.23;;
5153;SDS011;2595;53.584;10.084;2022-11-15T08:11:39;19.60;;;15.50;;
5153;SDS011;2595;53.584;10.084;2022-11-15T08:14:05;29.20;;;16.00;;
5153;SDS011;2595;53.584;10.084;2022-11-15T08:16:31;25.30;;;16.00;;
5153;SDS011;2595;53.584;10.084;2022-11-15T08:18:57;17.83;;;15.97;;
5153;SDS011;2595;53.584;10.084;2022-11-15T08:21:22;20.57;;;15.80;;
5153;SDS011;2595;53.584;10.084;2022-11-15T08:23:48;21.47;;;15.23;;
5153;SDS011;2595;53.584;10.084;2022-11-15T08:26:13;17.30;;;15.43;;
5153;SDS011;2595;53.584;10.084;2022-11-15T08:28:39;15.90;;;14.00;;
5153;SDS011;2595;53.584;10.084;2022-11-15T08:31:05;16.97;;;14.40;;
5153;SDS011;2595;53.584;10.084;2022-11-15T08:33:31;15.13;;;13.53;;
5153;SDS011;2595;53.584;10.084;2022-11-15T08:35:58;25.17;;;16.87;;
5153;SDS011;2595;53.584;10.084;2022-11-15T08:38:25;18.23;;;15.07;;
5153;SDS011;2595;53.584;10.084;2022-11-15T08:40:51;23.20;;;13.87;;
5153;SDS011;2595;53.584;10.084;2022-11-15T08:43:23;19.00;;;14.70;;
5153;SDS011;2595;53.584;10.084;2022-11-15T08:45:48;19.03;;;15.13;;
5153;SDS011;2595;53.584;10.084;2022-11-15T08:48:14;19.10;;;15.20;;
5153;SDS011;2595;53.584;10.084;2022-11-15T08:50:40;14.93;;;12.70;;
5153;SDS011;2595;53.584;10.084;2022-11-15T08:53:10;17.50;;;15.10;;
5153;SDS011;2595;53.584;10.084;2022-11-15T08:55:36;18.27;;;14.30;;
5153;SDS011;2595;53.584;10.084;2022-11-15T08:58:02;16.23;;;14.20;;
5153;SDS011;2595;53.584;10.084;2022-11-15T09:00:29;19.30;;;15.10;;
5153;SDS011;2595;53.584;10.084;2022-11-15T09:02:54;19.67;;;15.80;;
5153;SDS011;2595;53.584;10.084;2022-11-15T09:05:20;15.53;;;12.93;;
5153;SDS011;2595;53.584;10.084;2022-11-15T09:07:45;15.80;;;13.53;;
5153;SDS011;2595;53.584;10.084;2022-11-15T09:10:11;18.03;;;12.57;;
5153;SDS011;2595;53.584;10.084;2022-11-15T09:12:37;14.23;;;12.83;;
5153;SDS011;2595;53.584;10.084;2022-11-15T09:15:03;13.87;;;12.43;;
5153;SDS011;2595;53.584;10.084;2022-11-15T09:17:30;20.87;;;14.20;;
5153;SDS011;2595;53.584;10.084;2022-11-15T09:19:55;17.63;;;14.20;;
5153;SDS011;2595;53.584;10.084;2022-11-15T09:22:21;17.87;;;14.57;;
5153;SDS011;2595;53.584;10.084;2022-11-15T09:24:46;22.57;;;15.03;;
5153;SDS011;2595;53.584;10.084;2022-11-15T09:27:12;21.67;;;14.80;;
5153;SDS011;2595;53.584;10.084;2022-11-15T09:29:38;21.10;;;15.80;;
5153;SDS011;2595;53.584;10.084;2022-11-15T09:32:04;20.80;;;14.40;;
5153;SDS011;2595;53.584;10.084;2022-11-15T09:34:29;21.10;;;15.30;;
5153;SDS011;2595;53.584;10.084;2022-11-15T09:36:55;16.23;;;14.50;;
5153;SDS011;2595;53.584;10.084;2022-11-15T09:39:21;20.07;;;13.83;;
5153;SDS011;2595;53.584;10.084;2022-11-15T09:45:04;19.80;;;13.83;;
5153;SDS011;2595;53.584;10.084;2022-11-15T09:50:41;15.97;;;14.27;;
5153;SDS011;2595;53.584;10.084;2022-11-15T09:53:16;15.53;;;13.93;;
5153;SDS011;2595;53.584;10.084;2022-11-15T09:55:52;16.83;;;13.97;;
5153;SDS011;2595;53.584;10.084;2022-11-15T10:01:46;18.50;;;14.90;;
5153;SDS011;2595;53.584;10.084;2022-11-15T10:04:29;17.90;;;15.13;;
5153;SDS011;2595;53.584;10.084;2022-11-15T10:10:20;18.00;;;15.03;;
5153;SDS011;2595;53.584;10.084;2022-11-15T10:12:54;24.60;;;14.87;;
5153;SDS011;2595;53.584;10.084;2022-11-15T10:15:20;17.13;;;13.70;;
5153;SDS011;2595;53.584;10.084;2022-11-15T10:20:54;21.03;;;15.50;;
5153;SDS011;2595;53.584;10.084;2022-11-15T10:23:22;15.73;;;13.97;;
5153;SDS011;2595;53.584;10.084;2022-11-15T10:25:59;15.53;;;13.13;;
5153;SDS011;2595;53.584;10.084;2022-11-15T10:28:26;14.07;;;12.20;;
5153;SDS011;2595;53.584;10.084;2022-11-15T10:30:53;15.30;;;12.83;;
5153;SDS011;2595;53.584;10.084;2022-11-15T10:41:20;11.73;;;10.73;;
5153;SDS011;2595;53.584;10.084;2022-11-15T10:46:33;16.53;;;14.10;;
5153;SDS011;2595;53.584;10.084;2022-11-15T10:49:12;17.43;;;13.03;;
5153;SDS011;2595;53.584;10.084;2022-11-15T10:52:18;12.67;;;11.53;;
5153;SDS011;2595;53.584;10.084;2022-11-15T10:57:21;13.10;;;10.90;;
5153;SDS011;2595;53.584;10.084;2022-11-15T10:59:57;14.83;;;12.30;;
5153;SDS011;2595;53.584;10.084;2022-11-15T11:02:35;14.27;;;10.63;;
5153;SDS011;2595;53.584;10.084;2022-11-15T11:05:04;12.10;;;10.87;;
5153;SDS011;2595;53.584;10.084;2022-11-15T11:07:33;17.33;;;11.73;;
5153;SDS011;2595;53.584;10.084;2022-11-15T11:10:02;11.07;;;10.03;;
5153;SDS011;2595;53.584;10.084;2022-11-15T11:12:44;12.77;;;11.50;;
5153;SDS011;2595;53.584;10.084;2022-11-15T11:15:14;11.60;;;10.07;;
5153;SDS011;2595;53.584;10.084;2022-11-15T11:20:29;10.97;;;9.80;;
5153;SDS011;2595;53.584;10.084;2022-11-15T11:31:56;10.07;;;9.20;;
5153;SDS011;2595;53.584;10.084;2022-11-15T11:45:41;11.90;;;10.87;;
5153;SDS011;2595;53.584;10.084;2022-11-15T11:48:37;13.40;;;10.90;;
5153;SDS011;2595;53.584;10.084;2022-11-15T11:51:14;11.90;;;10.90;;
5153;SDS011;2595;53.584;10.084;2022-11-15T11:54:00;16.07;;;10.63;;
5153;SDS011;2595;53.584;10.084;2022-11-15T11:56:35;19.73;;;11.30;;
5153;SDS011;2595;53.584;10.084;2022-11-15T11:59:13;13.03;;;11.83;;
5153;SDS011;2595;53.584;10.084;2022-11-15T12:02:08;14.53;;;12.20;;
5153;SDS011;2595;53.584;10.084;2022-11-15T12:04:50;15.17;;;11.50;;
5153;SDS011;2595;53.584;10.084;2022-11-15T12:07:21;12.23;;;11.13;;
5153;SDS011;2595;53.584;10.084;2022-11-15T12:12:39;13.30;;;11.93;;
5153;SDS011;2595;53.584;10.084;2022-11-15T12:17:50;12.13;;;11.10;;
5153;SDS011;2595;53.584;10.084;2022-11-15T12:22:58;15.20;;;12.87;;
5153;SDS011;2595;53.584;10.084;2022-11-15T12:31:05;13.70;;;11.57;;
5153;SDS011;2595;53.584;10.084;2022-11-15T12:33:43;15.07;;;11.20;;
5153;SDS011;2595;53.584;10.084;2022-11-15T12:41:19;12.03;;;10.73;;
5153;SDS011;2595;53.584;10.084;2022-11-15T12:43:47;12.50;;;11.20;;
5153;SDS011;2595;53.584;10.084;2022-11-15T12:49:42;13.10;;;10.17;;
5153;SDS011;2595;53.584;10.084;2022-11-15T12:52:04;10.50;;;9.50;;
5153;SDS011;2595;53.584;10.084;2022-11-15T13:02:20;12.43;;;10.20;;
5153;SDS011;2595;53.584;10.084;2022-11-15T13:04:49;11.57;;;10.53;;
5153;SDS011;2595;53.584;10.084;2022-11-15T13:10:00;16.40;;;11.60;;
5153;SDS011;2595;53.584;10.084;2022-11-15T13:35:53;15.23;;;10.50;;
5153;SDS011;2595;53.584;10.084;2022-11-15T13:40:51;9.00;;;8.50;;
5153;SDS011;2595;53.584;10.084;2022-11-15T13:46:03;10.67;;;9.57;;
5153;SDS011;2595;53.584;10.084;2022-11-15T13:48:29;10.10;;;9.20;;
5153;SDS011;2595;53.584;10.084;2022-11-15T13:50:54;11.57;;;10.57;;
5153;SDS011;2595;53.584;10.084;2022-11-15T13:53:22;10.97;;;10.03;;
5153;SDS011;2595;53.584;10.084;2022-11-15T13:55:48;10.10;;;9.20;;
5153;SDS011;2595;53.584;10.084;2022-11-15T13:58:14;10.30;;;9.30;;
5153;SDS011;2595;53.584;10.084;2022-11-15T14:00:40;12.03;;;11.00;;
5153;SDS011;2595;53.584;10.084;2022-11-15T14:08:35;13.23;;;10.43;;
5153;SDS011;2595;53.584;10.084;2022-11-15T14:11:08;11.90;;;10.90;;
5153;SDS011;2595;53.584;10.084;2022-11-15T14:13:40;12.10;;;11.10;;
5153;SDS011;2595;53.584;10.084;2022-11-15T14:16:17;9.90;;;9.00;;
5153;SDS011;2595;53.584;10.084;2022-11-15T14:21:10;10.70;;;9.83;;
5153;SDS011;2595;53.584;10.084;2022-11-15T14:23:35;9.77;;;9.07;;
5153;SDS011;2595;53.584;10.084;2022-11-15T14:26:01;11.83;;;10.63;;
5153;SDS011;2595;53.584;10.084;2022-11-15T14:28:31;22.83;;;9.43;;
5153;SDS011;2595;53.584;10.084;2022-11-15T14:31:01;11.83;;;9.47;;
5153;SDS011;2595;53.584;10.084;2022-11-15T14:33:32;8.93;;;8.10;;
5153;SDS011;2595;53.584;10.084;2022-11-15T14:36:12;10.97;;;10.07;;
5153;SDS011;2595;53.584;10.084;2022-11-15T14:38:38;12.60;;;9.37;;
5153;SDS011;2595;53.584;10.084;2022-11-15T14:41:04;10.63;;;9.77;;
5153;SDS011;2595;53.584;10.084;2022-11-15T14:43:30;9.20;;;8.30;;
5153;SDS011;2595;53.584;10.084;2022-11-15T14:45:56;9.93;;;9.13;;
5153;SDS011;2595;53.584;10.084;2022-11-15T14:48:22;23.73;;;9.87;;
5153;SDS011;2595;53.584;10.084;2022-11-15T14:50:47;10.50;;;9.50;;
5153;SDS011;2595;53.584;10.084;2022-11-15T14:53:14;9.40;;;8.70;;
5153;SDS011;2595;53.584;10.084;2022-11-15T14:55:41;10.07;;;9.37;;
5153;SDS011;2595;53.584;10.084;2022-11-15T14:58:07;9.60;;;8.90;;
5153;SDS011;2595;53.584;10.084;2022-11-15T15:00:33;9.77;;;8.67;;
5153;SDS011;2595;53.584;10.084;2022-11-15T15:03:00;10.00;;;8.57;;
5153;SDS011;2595;53.584;10.084;2022-11-15T15:05:43;9.97;;;8.97;;
5153;SDS011;2595;53.584;10.084;2022-11-15T15:08:09;9.50;;;8.43;;
5153;SDS011;2595;53.584;10.084;2022-11-15T15:10:42;8.87;;;8.10;;
5153;SDS011;2595;53.584;10.084;2022-11-15T15:13:20;9.23;;;8.33;;
5153;SDS011;2595;53.584;10.084;2022-11-15T15:15:47;10.33;;;9.53;;
5153;SDS011;2595;53.584;10.084;2022-11-15T15:18:14;9.90;;;9.30;;
5153;SDS011;2595;53.584;10.084;2022-11-15T15:20:40;10.97;;;9.27;;
5153;SDS011;2595;53.584;10.084;2022-11-15T15:23:12;10.20;;;9.30;;
5153;SDS011;2595;53.584;10.084;2022-11-15T15:25:43;10.50;;;9.43;;
5153;SDS011;2595;53.584;10.084;2022-11-15T15:28:10;11.63;;;10.47;;
5153;SDS011;2595;53.584;10.084;2022-11-15T15:30:36;8.87;;;8.10;;
5153;SDS011;2595;53.584;10.084;2022-11-15T15:33:02;8.63;;;8.00;;
5153;SDS011;2595;53.584;10.084;2022-11-15T15:35:29;9.10;;;8.30;;
5153;SDS011;2595;53.584;10.084;2022-11-15T15:37:56;9.57;;;8.77;;
5153;SDS011;2595;53.584;10.084;2022-11-15T15:40:23;10.00;;;9.30;;
5153;SDS011;2595;53.584;10.084;2022-11-15T15:42:49;8.70;;;8.00;;
5153;SDS011;2595;53.584;10.084;2022-11-15T15:45:15;9.37;;;8.00;;
5153;SDS011;2595;53.584;10.084;2022-11-15T15:47:42;12.40;;;8.80;;
5153;SDS011;2595;53.584;10.084;2022-11-15T15:50:27;8.67;;;8.07;;
5153;SDS011;2595;53.584;10.084;2022-11-15T15:52:55;11.93;;;9.50;;
5153;SDS011;2595;53.584;10.084;2022-11-15T15:55:22;8.57;;;7.90;;
5153;SDS011;2595;53.584;10.084;2022-11-15T15:57:48;8.63;;;7.93;;
5153;SDS011;2595;53.584;10.084;2022-11-15T16:00:15;9.47;;;8.53;;
5153;SDS011;2595;53.584;10.084;2022-11-15T16:02:41;8.63;;;8.03;;
5153;SDS011;2595;53.584;10.084;2022-11-15T16:05:07;10.33;;;9.60;;
5153;SDS011;2595;53.584;10.084;2022-11-15T16:07:34;9.57;;;8.77;;
5153;SDS011;2595;53.584;10.084;2022-11-15T16:10:00;9.57;;;8.90;;
5153;SDS011;2595;53.584;10.084;2022-11-15T16:12:29;8.77;;;7.97;;
5153;SDS011;2595;53.584;10.084;2022-11-15T16:14:59;9.40;;;8.70;;
5153;SDS011;2595;53.584;10.084;2022-11-15T16:17:30;9.63;;;8.83;;
5153;SDS011;2595;53.584;10.084;2022-11-15T16:19:58;8.50;;;7.90;;
5153;SDS011;2595;53.584;10.084;2022-11-15T16:22:24;10.70;;;9.60;;
5153;SDS011;2595;53.584;10.084;2022-11-15T16:24:50;9.77;;;8.93;;
5153;SDS011;2595;53.584;10.084;2022-11-15T16:27:19;11.07;;;10.07;;
5153;SDS011;2595;53.584;10.084;2022-11-15T16:29:46;8.83;;;8.23;;
5153;SDS011;2595;53.584;10.084;2022-11-15T16:32:12;11.63;;;10.50;;
5153;SDS011;2595;53.584;10.084;2022-11-15T16:34:38;9.40;;;8.70;;
5153;SDS011;2595;53.584;10.084;2022-11-15T16:37:04;9.90;;;9.00;;
5153;SDS011;2595;53.584;10.084;2022-11-15T16:39:31;9.20;;;8.40;;
5153;SDS011;2595;53.584;10.084;2022-11-15T16:41:59;9.17;;;8.50;;
5153;SDS011;2595;53.584;10.084;2022-11-15T16:44:27;10.50;;;9.40;;
5153;SDS011;2595;53.584;10.084;2022-11-15T16:46:53;8.90;;;8.20;;
5153;SDS011;2595;53.584;10.084;2022-11-15T16:49:19;10.97;;;9.60;;
5153;SDS011;2595;53.584;10.084;2022-11-15T16:51:46;11.00;;;10.00;;
5153;SDS011;2595;53.584;10.084;2022-11-15T16:54:12;14.40;;;11.20;;
5153;SDS011;2595;53.584;10.084;2022-11-15T16:56:38;9.87;;;9.10;;
5153;SDS011;2595;53.584;10.084;2022-11-15T16:59:04;10.17;;;9.37;;
5153;SDS011;2595;53.584;10.084;2022-11-15T17:01:34;11.13;;;10.10;;
5153;SDS011;2595;53.584;10.084;2022-11-15T17:04:11;10.37;;;9.47;;
5153;SDS011;2595;53.584;10.084;2022-11-15T17:06:38;13.40;;;10.80;;
5153;SDS011;2595;53.584;10.084;2022-11-15T17:09:04;11.97;;;10.97;;
5153;SDS011;2595;53.584;10.084;2022-11-15T17:11:30;10.63;;;9.90;;
5153;SDS011;2595;53.584;10.084;2022-11-15T17:13:57;12.30;;;11.10;;
5153;SDS011;2595;53.584;10.084;2022-11-15T17:16:23;12.17;;;10.87;;
5153;SDS011;2595;53.584;10.084;2022-11-15T17:18:51;13.80;;;10.83;;
5153;SDS011;2595;53.584;10.084;2022-11-15T17:21:18;14.63;;;11.00;;
5153;SDS011;2595;53.584;10.084;2022-11-15T17:23:45;13.17;;;11.97;;
5153;SDS011;2595;53.584;10.084;2022-11-15T17:26:12;11.97;;;10.93;;
5153;SDS011;2595;53.584;10.084;2022-11-15T17:28:39;10.47;;;9.63;;